sensor_id;sensor_type;location;lat;lon;timestamp;temperature;humidity
26623;DHT22;14254;50.968;5.366;2023-04-29T00:01:52;11.80;99.90
26623;DHT22;14254;50.968;5.366;2023-04-29T00:04:18;11.80;99.90
26623;DHT22;14254;50.968;5.366;2023-04-29T00:06:44;11.80;99.90
26623;DHT22;14254;50.968;5.366;2023-04-29T00:09:10;11.80;99.90
26623;DHT22;14254;50.968;5.366;2023-04-29T00:11:35;11.60;99.90
26623;DHT22;14254;50.968;5.366;2023-04-29T00:14:01;11.50;99.90
26623;DHT22;14254;50.968;5.366;2023-04-29T00:16:27;11.60;99.90
26623;DHT22;14254;50.968;5.366;2023-04-29T00:18:52;11.60;99.90
26623;DHT22;14254;50.968;5.366;2023-04-29T00:21:18;11.50;99.90
26623;DHT22;14254;50.968;5.366;2023-04-29T00:23:45;11.50;99.90
26623;DHT22;14254;50.968;5.366;2023-04-29T00:26:10;11.40;99.90
26623;DHT22;14254;50.968;5.366;2023-04-29T00:28:36;11.30;99.90
26623;DHT22;14254;50.968;5.366;2023-04-29T00:31:02;11.30;99.90
26623;DHT22;14254;50.968;5.366;2023-04-29T00:33:27;11.20;99.90
26623;DHT22;14254;50.968;5.366;2023-04-29T00:35:53;11.20;99.90
26623;DHT22;14254;50.968;5.366;2023-04-29T00:38:19;11.30;99.90
26623;DHT22;14254;50.968;5.366;2023-04-29T00:40:45;11.30;99.90
26623;DHT22;14254;50.968;5.366;2023-04-29T00:43:11;11.40;99.90
26623;DHT22;14254;50.968;5.366;2023-04-29T00:45:37;11.50;99.90
26623;DHT22;14254;50.968;5.366;2023-04-29T00:48:03;11.50;99.90
26623;DHT22;14254;50.968;5.366;2023-04-29T00:50:29;11.60;99.90
26623;DHT22;14254;50.968;5.366;2023-04-29T00:52:55;11.40;99.90
26623;DHT22;14254;50.968;5.366;2023-04-29T00:55:22;11.50;99.90
26623;DHT22;14254;50.968;5.366;2023-04-29T00:57:49;11.50;99.90
26623;DHT22;14254;50.968;5.366;2023-04-29T01:00:17;11.70;99.90
26623;DHT22;14254;50.968;5.366;2023-04-29T01:02:44;11.40;99.90
26623;DHT22;14254;50.968;5.366;2023-04-29T01:05:10;11.30;99.90
26623;DHT22;14254;50.968;5.366;2023-04-29T01:07:39;11.30;99.90
26623;DHT22;14254;50.968;5.366;2023-04-29T01:15:25;11.20;99.90
26623;DHT22;14254;50.968;5.366;2023-04-29T01:17:59;11.30;99.90
26623;DHT22;14254;50.968;5.366;2023-04-29T01:20:25;11.40;99.90
26623;DHT22;14254;50.968;5.366;2023-04-29T01:22:51;11.50;99.90
26623;DHT22;14254;50.968;5.366;2023-04-29T01:25:17;11.30;99.90
26623;DHT22;14254;50.968;5.366;2023-04-29T01:38:52;11.10;99.90
26623;DHT22;14254;50.968;5.366;2023-04-29T01:41:25;11.20;99.90
26623;DHT22;14254;50.968;5.366;2023-04-29T01:43:55;11.40;99.90
26623;DHT22;14254;50.968;5.366;2023-04-29T01:46:23;11.40;99.90
26623;DHT22;14254;50.968;5.366;2023-04-29T01:48:52;11.10;99.90
26623;DHT22;14254;50.968;5.366;2023-04-29T01:51:18;11.10;99.90
26623;DHT22;14254;50.968;5.366;2023-04-29T01:53:44;11.00;99.90
26623;DHT22;14254;50.968;5.366;2023-04-29T01:56:09;11.10;99.90
26623;DHT22;14254;50.968;5.366;2023-04-29T01:58:35;11.30;99.90
26623;DHT22;14254;50.968;5.366;2023-04-29T02:01:01;11.10;99.90
26623;DHT22;14254;50.968;5.366;2023-04-29T02:03:26;11.10;99.90
26623;DHT22;14254;50.968;5.366;2023-04-29T02:05:52;11.10;99.90
26623;DHT22;14254;50.968;5.366;2023-04-29T02:08:18;11.10;99.90
26623;DHT22;14254;50.968;5.366;2023-04-29T02:10:57;11.00;99.90
26623;DHT22;14254;50.968;5.366;2023-04-29T02:13:24;11.00;99.90
26623;DHT22;14254;50.968;5.366;2023-04-29T02:15:50;11.20;99.90
26623;DHT22;14254;50.968;5.366;2023-04-29T02:18:15;11.50;99.90
26623;DHT22;14254;50.968;5.366;2023-04-29T02:20:41;11.20;99.90
26623;DHT22;14254;50.968;5.366;2023-04-29T02:23:07;11.30;99.90
26623;DHT22;14254;50.968;5.366;2023-04-29T02:25:33;11.00;99.90
26623;DHT22;14254;50.968;5.366;2023-04-29T02:27:59;11.00;99.90
26623;DHT22;14254;50.968;5.366;2023-04-29T02:30:24;11.00;99.90
26623;DHT22;14254;50.968;5.366;2023-04-29T02:32:50;10.80;99.90
26623;DHT22;14254;50.968;5.366;2023-04-29T02:35:17;10.60;99.90
26623;DHT22;14254;50.968;5.366;2023-04-29T02:37:43;10.60;99.90
26623;DHT22;14254;50.968;5.366;2023-04-29T02:40:10;10.60;99.90
26623;DHT22;14254;50.968;5.366;2023-04-29T02:42:36;10.50;99.90
26623;DHT22;14254;50.968;5.366;2023-04-29T02:45:02;10.60;99.90
26623;DHT22;14254;50.968;5.366;2023-04-29T02:47:28;10.40;99.90
26623;DHT22;14254;50.968;5.366;2023-04-29T02:49:54;10.20;99.90
26623;DHT22;14254;50.968;5.366;2023-04-29T02:52:20;10.10;99.90
26623;DHT22;14254;50.968;5.366;2023-04-29T02:54:45;10.10;99.90
26623;DHT22;14254;50.968;5.366;2023-04-29T02:57:11;10.10;99.90
26623;DHT22;14254;50.968;5.366;2023-04-29T02:59:37;10.10;99.90
26623;DHT22;14254;50.968;5.366;2023-04-29T03:02:02;10.10;99.90
26623;DHT22;14254;50.968;5.366;2023-04-29T03:04:28;10.10;99.90
26623;DHT22;14254;50.968;5.366;2023-04-29T03:06:54;10.10;99.90
26623;DHT22;14254;50.968;5.366;2023-04-29T03:09:21;10.10;99.90
26623;DHT22;14254;50.968;5.366;2023-04-29T03:11:48;10.00;99.90
26623;DHT22;14254;50.968;5.366;2023-04-29T03:14:14;10.00;99.90
26623;DHT22;14254;50.968;5.366;2023-04-29T03:16:40;10.00;99.90
26623;DHT22;14254;50.968;5.366;2023-04-29T03:19:05;10.30;99.90
26623;DHT22;14254;50.968;5.366;2023-04-29T03:21:31;10.20;99.90
26623;DHT22;14254;50.968;5.366;2023-04-29T03:23:57;10.10;99.90
26623;DHT22;14254;50.968;5.366;2023-04-29T03:26:23;10.00;99.90
26623;DHT22;14254;50.968;5.366;2023-04-29T03:28:50;10.00;99.90
26623;DHT22;14254;50.968;5.366;2023-04-29T03:31:15;10.10;99.90
26623;DHT22;14254;50.968;5.366;2023-04-29T03:33:41;10.10;99.90
26623;DHT22;14254;50.968;5.366;2023-04-29T03:36:07;10.10;99.90
26623;DHT22;14254;50.968;5.366;2023-04-29T03:38:34;10.00;99.90
26623;DHT22;14254;50.968;5.366;2023-04-29T03:40:59;10.00;99.90
26623;DHT22;14254;50.968;5.366;2023-04-29T03:43:25;9.90;99.90
26623;DHT22;14254;50.968;5.366;2023-04-29T03:45:51;9.90;99.90
26623;DHT22;14254;50.968;5.366;2023-04-29T03:48:17;9.90;99.90
26623;DHT22;14254;50.968;5.366;2023-04-29T03:50:44;9.90;99.90
26623;DHT22;14254;50.968;5.366;2023-04-29T03:53:10;9.90;99.90
26623;DHT22;14254;50.968;5.366;2023-04-29T03:55:36;10.00;99.90
26623;DHT22;14254;50.968;5.366;2023-04-29T03:58:02;10.00;99.90
26623;DHT22;14254;50.968;5.366;2023-04-29T04:00:29;10.00;99.90
26623;DHT22;14254;50.968;5.366;2023-04-29T04:02:59;10.00;99.90
26623;DHT22;14254;50.968;5.366;2023-04-29T04:05:24;10.00;99.90
26623;DHT22;14254;50.968;5.366;2023-04-29T04:07:51;9.90;99.90
26623;DHT22;14254;50.968;5.366;2023-04-29T04:10:17;9.90;99.90
26623;DHT22;14254;50.968;5.366;2023-04-29T04:12:43;9.90;99.90
26623;DHT22;14254;50.968;5.366;2023-04-29T04:15:10;9.90;99.90
26623;DHT22;14254;50.968;5.366;2023-04-29T04:17:36;9.90;99.90
26623;DHT22;14254;50.968;5.366;2023-04-29T04:20:01;9.90;99.90
26623;DHT22;14254;50.968;5.366;2023-04-29T04:22:27;9.90;99.90
26623;DHT22;14254;50.968;5.366;2023-04-29T04:24:56;9.90;99.90
26623;DHT22;14254;50.968;5.366;2023-04-29T04:27:22;9.90;99.90
26623;DHT22;14254;50.968;5.366;2023-04-29T04:29:52;9.90;99.90
26623;DHT22;14254;50.968;5.366;2023-04-29T04:32:20;10.00;99.90
26623;DHT22;14254;50.968;5.366;2023-04-29T04:34:46;9.90;99.90
26623;DHT22;14254;50.968;5.366;2023-04-29T04:37:13;9.80;99.90
26623;DHT22;14254;50.968;5.366;2023-04-29T04:39:38;9.80;99.90
26623;DHT22;14254;50.968;5.366;2023-04-29T04:42:04;9.90;99.90
26623;DHT22;14254;50.968;5.366;2023-04-29T04:44:30;9.80;99.90
26623;DHT22;14254;50.968;5.366;2023-04-29T04:46:56;9.80;99.90
26623;DHT22;14254;50.968;5.366;2023-04-29T04:49:25;9.80;99.90
26623;DHT22;14254;50.968;5.366;2023-04-29T04:51:51;9.80;99.90
26623;DHT22;14254;50.968;5.366;2023-04-29T04:54:17;9.80;99.90
26623;DHT22;14254;50.968;5.366;2023-04-29T04:56:43;9.90;99.90
26623;DHT22;14254;50.968;5.366;2023-04-29T04:59:09;10.00;99.90
26623;DHT22;14254;50.968;5.366;2023-04-29T05:01:34;10.00;99.90
26623;DHT22;14254;50.968;5.366;2023-04-29T05:04:00;10.10;99.90
26623;DHT22;14254;50.968;5.366;2023-04-29T05:06:27;10.20;99.90
26623;DHT22;14254;50.968;5.366;2023-04-29T05:08:53;10.10;99.90
26623;DHT22;14254;50.968;5.366;2023-04-29T05:11:20;10.20;99.90
26623;DHT22;14254;50.968;5.366;2023-04-29T05:13:47;10.20;99.90
26623;DHT22;14254;50.968;5.366;2023-04-29T05:16:13;10.30;99.90
26623;DHT22;14254;50.968;5.366;2023-04-29T05:18:38;10.30;99.90
26623;DHT22;14254;50.968;5.366;2023-04-29T05:21:04;10.40;99.90
26623;DHT22;14254;50.968;5.366;2023-04-29T05:23:30;10.50;99.90
26623;DHT22;14254;50.968;5.366;2023-04-29T05:25:56;10.50;99.90
26623;DHT22;14254;50.968;5.366;2023-04-29T05:28:21;10.40;99.90
26623;DHT22;14254;50.968;5.366;2023-04-29T05:30:50;10.30;99.90
26623;DHT22;14254;50.968;5.366;2023-04-29T05:33:16;10.60;99.90
26623;DHT22;14254;50.968;5.366;2023-04-29T05:35:42;10.40;99.90
26623;DHT22;14254;50.968;5.366;2023-04-29T05:38:07;10.20;99.90
26623;DHT22;14254;50.968;5.366;2023-04-29T05:40:33;10.10;99.90
26623;DHT22;14254;50.968;5.366;2023-04-29T05:42:59;10.20;99.90
26623;DHT22;14254;50.968;5.366;2023-04-29T05:45:25;9.90;99.90
26623;DHT22;14254;50.968;5.366;2023-04-29T05:47:50;9.70;99.90
26623;DHT22;14254;50.968;5.366;2023-04-29T05:50:16;9.40;99.90
26623;DHT22;14254;50.968;5.366;2023-04-29T05:52:42;9.50;99.90
26623;DHT22;14254;50.968;5.366;2023-04-29T05:55:08;9.40;99.90
26623;DHT22;14254;50.968;5.366;2023-04-29T05:57:34;9.40;99.90
26623;DHT22;14254;50.968;5.366;2023-04-29T05:59:59;9.40;99.90
26623;DHT22;14254;50.968;5.366;2023-04-29T06:02:26;9.30;99.90
26623;DHT22;14254;50.968;5.366;2023-04-29T06:04:51;9.40;99.90
26623;DHT22;14254;50.968;5.366;2023-04-29T06:07:17;9.30;99.90
26623;DHT22;14254;50.968;5.366;2023-04-29T06:09:43;9.40;99.90
26623;DHT22;14254;50.968;5.366;2023-04-29T06:12:09;9.40;99.90
26623;DHT22;14254;50.968;5.366;2023-04-29T06:14:35;9.50;99.90
26623;DHT22;14254;50.968;5.366;2023-04-29T06:17:01;9.70;99.90
26623;DHT22;14254;50.968;5.366;2023-04-29T06:19:26;9.70;99.90
26623;DHT22;14254;50.968;5.366;2023-04-29T06:21:52;9.70;99.90
26623;DHT22;14254;50.968;5.366;2023-04-29T06:24:18;9.80;99.90
26623;DHT22;14254;50.968;5.366;2023-04-29T06:26:43;9.90;99.90
26623;DHT22;14254;50.968;5.366;2023-04-29T06:29:10;9.90;99.90
26623;DHT22;14254;50.968;5.366;2023-04-29T06:31:35;9.80;99.90
26623;DHT22;14254;50.968;5.366;2023-04-29T06:34:01;9.70;99.90
26623;DHT22;14254;50.968;5.366;2023-04-29T06:36:27;9.70;99.90
26623;DHT22;14254;50.968;5.366;2023-04-29T06:38:52;9.70;99.90
26623;DHT22;14254;50.968;5.366;2023-04-29T06:41:18;9.80;99.90
26623;DHT22;14254;50.968;5.366;2023-04-29T06:43:44;9.80;99.90
26623;DHT22;14254;50.968;5.366;2023-04-29T06:46:09;9.90;99.90
26623;DHT22;14254;50.968;5.366;2023-04-29T06:48:36;9.90;99.90
26623;DHT22;14254;50.968;5.366;2023-04-29T06:51:01;9.80;99.90
26623;DHT22;14254;50.968;5.366;2023-04-29T06:53:27;9.80;99.90
26623;DHT22;14254;50.968;5.366;2023-04-29T06:55:53;9.90;99.90
26623;DHT22;14254;50.968;5.366;2023-04-29T06:58:19;9.90;99.90
26623;DHT22;14254;50.968;5.366;2023-04-29T07:00:49;10.10;99.90
26623;DHT22;14254;50.968;5.366;2023-04-29T07:03:16;10.30;99.90
26623;DHT22;14254;50.968;5.366;2023-04-29T07:05:43;10.40;99.90
26623;DHT22;14254;50.968;5.366;2023-04-29T07:08:12;10.40;99.90
26623;DHT22;14254;50.968;5.366;2023-04-29T07:10:39;10.50;99.90
26623;DHT22;14254;50.968;5.366;2023-04-29T07:13:04;10.50;99.90
26623;DHT22;14254;50.968;5.366;2023-04-29T07:15:33;10.40;99.90
26623;DHT22;14254;50.968;5.366;2023-04-29T07:17:59;10.50;99.90
26623;DHT22;14254;50.968;5.366;2023-04-29T07:20:27;10.60;99.90
26623;DHT22;14254;50.968;5.366;2023-04-29T07:22:53;10.80;99.90
26623;DHT22;14254;50.968;5.366;2023-04-29T07:25:19;10.60;99.90
26623;DHT22;14254;50.968;5.366;2023-04-29T07:27:44;10.50;99.90
26623;DHT22;14254;50.968;5.366;2023-04-29T07:30:10;10.30;99.90
26623;DHT22;14254;50.968;5.366;2023-04-29T07:32:36;10.30;99.90
26623;DHT22;14254;50.968;5.366;2023-04-29T07:35:02;10.40;99.90
26623;DHT22;14254;50.968;5.366;2023-04-29T07:37:28;10.40;99.90
26623;DHT22;14254;50.968;5.366;2023-04-29T07:39:53;10.30;99.90
26623;DHT22;14254;50.968;5.366;2023-04-29T07:42:19;10.30;99.90
26623;DHT22;14254;50.968;5.366;2023-04-29T07:44:45;10.30;99.90
26623;DHT22;14254;50.968;5.366;2023-04-29T07:47:13;10.30;99.90
26623;DHT22;14254;50.968;5.366;2023-04-29T07:49:39;10.20;99.90
26623;DHT22;14254;50.968;5.366;2023-04-29T07:52:06;10.20;99.90
26623;DHT22;14254;50.968;5.366;2023-04-29T07:54:34;10.20;99.90
26623;DHT22;14254;50.968;5.366;2023-04-29T07:57:00;10.30;99.90
26623;DHT22;14254;50.968;5.366;2023-04-29T07:59:28;10.30;99.90
26623;DHT22;14254;50.968;5.366;2023-04-29T08:01:53;10.30;99.90
26623;DHT22;14254;50.968;5.366;2023-04-29T08:04:20;10.30;99.90
26623;DHT22;14254;50.968;5.366;2023-04-29T08:06:45;10.30;99.90
26623;DHT22;14254;50.968;5.366;2023-04-29T08:09:12;10.40;99.90
26623;DHT22;14254;50.968;5.366;2023-04-29T08:11:37;10.30;99.90
26623;DHT22;14254;50.968;5.366;2023-04-29T08:14:04;10.20;99.90
26623;DHT22;14254;50.968;5.366;2023-04-29T08:16:30;10.40;99.90
26623;DHT22;14254;50.968;5.366;2023-04-29T08:18:56;10.60;99.90
26623;DHT22;14254;50.968;5.366;2023-04-29T08:21:22;10.70;99.90
26623;DHT22;14254;50.968;5.366;2023-04-29T08:23:48;10.60;99.90
26623;DHT22;14254;50.968;5.366;2023-04-29T08:26:14;10.80;99.90
26623;DHT22;14254;50.968;5.366;2023-04-29T08:28:40;11.10;99.90
26623;DHT22;14254;50.968;5.366;2023-04-29T08:31:06;11.60;99.90
26623;DHT22;14254;50.968;5.366;2023-04-29T08:33:35;12.00;99.90
26623;DHT22;14254;50.968;5.366;2023-04-29T08:36:01;12.30;99.90
26623;DHT22;14254;50.968;5.366;2023-04-29T08:38:28;11.70;99.90
26623;DHT22;14254;50.968;5.366;2023-04-29T08:40:55;11.30;99.90
26623;DHT22;14254;50.968;5.366;2023-04-29T08:43:21;11.50;99.90
26623;DHT22;14254;50.968;5.366;2023-04-29T08:45:50;12.00;99.90
26623;DHT22;14254;50.968;5.366;2023-04-29T08:48:16;12.10;99.90
26623;DHT22;14254;50.968;5.366;2023-04-29T08:50:43;12.40;99.90
26623;DHT22;14254;50.968;5.366;2023-04-29T08:53:12;12.00;99.90
26623;DHT22;14254;50.968;5.366;2023-04-29T08:55:45;12.10;99.90
26623;DHT22;14254;50.968;5.366;2023-04-29T08:58:12;12.00;99.90
26623;DHT22;14254;50.968;5.366;2023-04-29T09:00:39;11.80;99.90
26623;DHT22;14254;50.968;5.366;2023-04-29T09:06:10;11.30;99.90
26623;DHT22;14254;50.968;5.366;2023-04-29T09:08:37;11.00;99.90
26623;DHT22;14254;50.968;5.366;2023-04-29T09:11:04;11.00;99.90
26623;DHT22;14254;50.968;5.366;2023-04-29T09:13:33;11.40;99.90
26623;DHT22;14254;50.968;5.366;2023-04-29T09:15:58;11.70;99.90
26623;DHT22;14254;50.968;5.366;2023-04-29T09:18:47;12.00;99.90
26623;DHT22;14254;50.968;5.366;2023-04-29T09:21:29;12.50;99.90
26623;DHT22;14254;50.968;5.366;2023-04-29T09:24:02;12.90;99.90
26623;DHT22;14254;50.968;5.366;2023-04-29T09:26:40;13.00;99.90
26623;DHT22;14254;50.968;5.366;2023-04-29T09:29:13;13.30;99.90
26623;DHT22;14254;50.968;5.366;2023-04-29T09:31:41;14.00;99.90
26623;DHT22;14254;50.968;5.366;2023-04-29T09:34:07;14.10;99.90
26623;DHT22;14254;50.968;5.366;2023-04-29T09:36:44;14.00;99.90
26623;DHT22;14254;50.968;5.366;2023-04-29T09:41:58;13.80;99.90
26623;DHT22;14254;50.968;5.366;2023-04-29T09:44:33;13.80;99.90
26623;DHT22;14254;50.968;5.366;2023-04-29T09:52:03;13.20;99.90
26623;DHT22;14254;50.968;5.366;2023-04-29T09:54:31;12.90;99.90
26623;DHT22;14254;50.968;5.366;2023-04-29T09:56:58;13.00;99.90
26623;DHT22;14254;50.968;5.366;2023-04-29T09:59:24;13.10;99.90
26623;DHT22;14254;50.968;5.366;2023-04-29T10:01:52;13.80;99.90
26623;DHT22;14254;50.968;5.366;2023-04-29T10:04:20;14.50;99.90
26623;DHT22;14254;50.968;5.366;2023-04-29T10:06:49;14.10;99.90
26623;DHT22;14254;50.968;5.366;2023-04-29T10:09:17;14.00;99.90
26623;DHT22;14254;50.968;5.366;2023-04-29T10:11:52;13.60;99.90
26623;DHT22;14254;50.968;5.366;2023-04-29T10:14:22;13.40;99.90
26623;DHT22;14254;50.968;5.366;2023-04-29T10:17:07;13.60;99.90
26623;DHT22;14254;50.968;5.366;2023-04-29T10:19:44;13.80;99.90
26623;DHT22;14254;50.968;5.366;2023-04-29T10:22:18;14.40;99.90
26623;DHT22;14254;50.968;5.366;2023-04-29T10:24:47;15.00;99.90
26623;DHT22;14254;50.968;5.366;2023-04-29T10:27:14;15.70;99.90
26623;DHT22;14254;50.968;5.366;2023-04-29T10:29:42;15.90;99.90
26623;DHT22;14254;50.968;5.366;2023-04-29T10:32:09;16.60;99.90
26623;DHT22;14254;50.968;5.366;2023-04-29T10:34:37;16.60;99.90
26623;DHT22;14254;50.968;5.366;2023-04-29T10:37:09;15.70;99.90
26623;DHT22;14254;50.968;5.366;2023-04-29T10:39:43;15.30;99.90
26623;DHT22;14254;50.968;5.366;2023-04-29T10:42:32;15.10;99.90
26623;DHT22;14254;50.968;5.366;2023-04-29T10:50:34;14.70;99.90
26623;DHT22;14254;50.968;5.366;2023-04-29T10:53:04;15.30;99.90
26623;DHT22;14254;50.968;5.366;2023-04-29T10:55:30;15.40;99.90
26623;DHT22;14254;50.968;5.366;2023-04-29T10:57:56;15.90;99.90
26623;DHT22;14254;50.968;5.366;2023-04-29T11:00:32;15.90;99.90
26623;DHT22;14254;50.968;5.366;2023-04-29T11:03:04;15.90;99.90
26623;DHT22;14254;50.968;5.366;2023-04-29T11:05:31;16.90;99.90
26623;DHT22;14254;50.968;5.366;2023-04-29T11:08:13;17.70;99.90
26623;DHT22;14254;50.968;5.366;2023-04-29T11:10:47;17.20;99.90
26623;DHT22;14254;50.968;5.366;2023-04-29T11:13:25;16.50;99.90
26623;DHT22;14254;50.968;5.366;2023-04-29T11:16:11;16.80;99.90
26623;DHT22;14254;50.968;5.366;2023-04-29T11:19:16;17.90;99.90
26623;DHT22;14254;50.968;5.366;2023-04-29T11:21:44;17.80;99.90
26623;DHT22;14254;50.968;5.366;2023-04-29T11:24:10;17.70;99.90
26623;DHT22;14254;50.968;5.366;2023-04-29T11:26:37;17.30;99.90
26623;DHT22;14254;50.968;5.366;2023-04-29T11:29:04;17.10;99.90
26623;DHT22;14254;50.968;5.366;2023-04-29T11:31:32;17.30;99.90
26623;DHT22;14254;50.968;5.366;2023-04-29T11:33:59;17.20;99.90
26623;DHT22;14254;50.968;5.366;2023-04-29T11:36:26;18.30;99.90
26623;DHT22;14254;50.968;5.366;2023-04-29T11:38:52;18.50;99.90
26623;DHT22;14254;50.968;5.366;2023-04-29T11:41:18;17.50;99.90
26623;DHT22;14254;50.968;5.366;2023-04-29T11:43:57;17.30;99.90
26623;DHT22;14254;50.968;5.366;2023-04-29T11:46:24;18.20;99.90
26623;DHT22;14254;50.968;5.366;2023-04-29T11:48:49;18.00;99.90
26623;DHT22;14254;50.968;5.366;2023-04-29T11:51:16;18.20;99.90
26623;DHT22;14254;50.968;5.366;2023-04-29T11:53:43;18.30;99.90
26623;DHT22;14254;50.968;5.366;2023-04-29T11:56:10;18.10;99.90
26623;DHT22;14254;50.968;5.366;2023-04-29T11:58:36;18.50;99.90
26623;DHT22;14254;50.968;5.366;2023-04-29T12:01:05;18.40;99.90
26623;DHT22;14254;50.968;5.366;2023-04-29T12:03:32;18.00;99.90
26623;DHT22;14254;50.968;5.366;2023-04-29T12:05:58;17.30;99.90
26623;DHT22;14254;50.968;5.366;2023-04-29T12:08:26;16.90;99.90
26623;DHT22;14254;50.968;5.366;2023-04-29T12:10:56;16.70;99.90
26623;DHT22;14254;50.968;5.366;2023-04-29T12:13:29;16.50;99.90
26623;DHT22;14254;50.968;5.366;2023-04-29T12:15:56;16.30;99.90
26623;DHT22;14254;50.968;5.366;2023-04-29T12:18:22;16.20;99.90
26623;DHT22;14254;50.968;5.366;2023-04-29T12:20:49;15.70;99.90
26623;DHT22;14254;50.968;5.366;2023-04-29T12:23:21;15.70;99.90
26623;DHT22;14254;50.968;5.366;2023-04-29T12:25:52;15.10;99.90
26623;DHT22;14254;50.968;5.366;2023-04-29T12:28:18;14.90;99.90
26623;DHT22;14254;50.968;5.366;2023-04-29T12:30:48;14.60;99.90
26623;DHT22;14254;50.968;5.366;2023-04-29T12:33:24;14.80;99.90
26623;DHT22;14254;50.968;5.366;2023-04-29T12:35:53;14.70;99.90
26623;DHT22;14254;50.968;5.366;2023-04-29T12:38:39;14.80;99.90
26623;DHT22;14254;50.968;5.366;2023-04-29T12:41:07;15.10;99.90
26623;DHT22;14254;50.968;5.366;2023-04-29T12:43:32;15.00;99.90
26623;DHT22;14254;50.968;5.366;2023-04-29T12:46:05;15.50;99.90
26623;DHT22;14254;50.968;5.366;2023-04-29T12:48:33;15.70;99.90
26623;DHT22;14254;50.968;5.366;2023-04-29T12:50:59;15.60;99.90
26623;DHT22;14254;50.968;5.366;2023-04-29T12:53:26;15.50;99.90
26623;DHT22;14254;50.968;5.366;2023-04-29T12:55:53;15.70;99.90
26623;DHT22;14254;50.968;5.366;2023-04-29T12:58:19;15.80;99.90
26623;DHT22;14254;50.968;5.366;2023-04-29T13:00:45;15.70;99.90
26623;DHT22;14254;50.968;5.366;2023-04-29T13:03:11;15.90;99.90
26623;DHT22;14254;50.968;5.366;2023-04-29T13:05:37;15.90;99.90
26623;DHT22;14254;50.968;5.366;2023-04-29T13:08:03;16.30;99.90
26623;DHT22;14254;50.968;5.366;2023-04-29T13:10:35;16.50;99.90
26623;DHT22;14254;50.968;5.366;2023-04-29T13:13:01;16.70;99.90
26623;DHT22;14254;50.968;5.366;2023-04-29T13:15:27;16.40;99.90
26623;DHT22;14254;50.968;5.366;2023-04-29T13:17:52;16.50;99.90
26623;DHT22;14254;50.968;5.366;2023-04-29T13:20:19;16.70;99.90
26623;DHT22;14254;50.968;5.366;2023-04-29T13:22:46;17.00;99.90
26623;DHT22;14254;50.968;5.366;2023-04-29T13:25:12;17.00;99.90
26623;DHT22;14254;50.968;5.366;2023-04-29T13:27:39;16.90;99.90
26623;DHT22;14254;50.968;5.366;2023-04-29T13:30:05;17.00;99.90
26623;DHT22;14254;50.968;5.366;2023-04-29T13:32:31;17.10;99.90
26623;DHT22;14254;50.968;5.366;2023-04-29T13:34:57;17.40;99.90
26623;DHT22;14254;50.968;5.366;2023-04-29T13:37:23;17.60;99.90
26623;DHT22;14254;50.968;5.366;2023-04-29T13:39:49;17.80;99.90
26623;DHT22;14254;50.968;5.366;2023-04-29T13:42:14;17.80;99.90
26623;DHT22;14254;50.968;5.366;2023-04-29T13:44:40;18.30;99.90
26623;DHT22;14254;50.968;5.366;2023-04-29T13:47:09;18.40;99.90
26623;DHT22;14254;50.968;5.366;2023-04-29T13:49:37;18.30;99.90
26623;DHT22;14254;50.968;5.366;2023-04-29T13:52:03;18.40;99.90
26623;DHT22;14254;50.968;5.366;2023-04-29T13:54:28;18.50;99.90
26623;DHT22;14254;50.968;5.366;2023-04-29T13:56:54;18.50;99.90
26623;DHT22;14254;50.968;5.366;2023-04-29T13:59:19;18.50;99.90
26623;DHT22;14254;50.968;5.366;2023-04-29T14:01:45;18.40;99.90
26623;DHT22;14254;50.968;5.366;2023-04-29T14:04:11;17.70;99.90
26623;DHT22;14254;50.968;5.366;2023-04-29T14:06:36;16.90;99.90
26623;DHT22;14254;50.968;5.366;2023-04-29T14:09:02;17.30;99.90
26623;DHT22;14254;50.968;5.366;2023-04-29T14:11:28;17.30;99.90
26623;DHT22;14254;50.968;5.366;2023-04-29T14:13:54;17.60;99.90
26623;DHT22;14254;50.968;5.366;2023-04-29T14:16:20;17.50;99.90
26623;DHT22;14254;50.968;5.366;2023-04-29T14:18:46;17.30;99.90
26623;DHT22;14254;50.968;5.366;2023-04-29T14:21:11;17.30;99.90
26623;DHT22;14254;50.968;5.366;2023-04-29T14:23:38;17.40;99.90
26623;DHT22;14254;50.968;5.366;2023-04-29T14:26:03;17.00;99.90
26623;DHT22;14254;50.968;5.366;2023-04-29T14:28:29;16.90;99.90
26623;DHT22;14254;50.968;5.366;2023-04-29T14:30:55;16.70;99.90
26623;DHT22;14254;50.968;5.366;2023-04-29T14:33:21;16.60;99.90
26623;DHT22;14254;50.968;5.366;2023-04-29T14:35:46;16.60;99.90
26623;DHT22;14254;50.968;5.366;2023-04-29T14:38:12;16.70;99.90
26623;DHT22;14254;50.968;5.366;2023-04-29T14:40:38;16.30;99.90
26623;DHT22;14254;50.968;5.366;2023-04-29T14:43:04;16.00;99.90
26623;DHT22;14254;50.968;5.366;2023-04-29T14:45:31;15.80;99.90
26623;DHT22;14254;50.968;5.366;2023-04-29T14:47:56;16.00;99.90
26623;DHT22;14254;50.968;5.366;2023-04-29T14:50:22;16.30;99.90
26623;DHT22;14254;50.968;5.366;2023-04-29T14:52:49;16.20;99.90
26623;DHT22;14254;50.968;5.366;2023-04-29T14:55:15;16.00;99.90
26623;DHT22;14254;50.968;5.366;2023-04-29T14:57:41;16.00;99.90
26623;DHT22;14254;50.968;5.366;2023-04-29T15:00:07;16.00;99.90
26623;DHT22;14254;50.968;5.366;2023-04-29T15:02:33;16.20;99.90
26623;DHT22;14254;50.968;5.366;2023-04-29T15:04:58;16.60;99.90
26623;DHT22;14254;50.968;5.366;2023-04-29T15:07:24;17.40;99.90
26623;DHT22;14254;50.968;5.366;2023-04-29T15:09:50;17.70;99.90
26623;DHT22;14254;50.968;5.366;2023-04-29T15:12:16;18.00;99.90
26623;DHT22;14254;50.968;5.366;2023-04-29T15:14:44;18.50;99.90
26623;DHT22;14254;50.968;5.366;2023-04-29T15:17:09;18.30;99.90
26623;DHT22;14254;50.968;5.366;2023-04-29T15:19:35;18.20;99.90
26623;DHT22;14254;50.968;5.366;2023-04-29T15:22:01;18.00;99.90
26623;DHT22;14254;50.968;5.366;2023-04-29T15:24:26;17.10;99.90
26623;DHT22;14254;50.968;5.366;2023-04-29T15:26:52;16.80;99.90
26623;DHT22;14254;50.968;5.366;2023-04-29T15:29:18;17.10;99.90
26623;DHT22;14254;50.968;5.366;2023-04-29T15:31:43;17.10;99.90
26623;DHT22;14254;50.968;5.366;2023-04-29T15:34:09;16.80;99.90
26623;DHT22;14254;50.968;5.366;2023-04-29T15:36:35;16.70;99.90
26623;DHT22;14254;50.968;5.366;2023-04-29T15:39:01;16.40;99.90
26623;DHT22;14254;50.968;5.366;2023-04-29T15:41:26;16.50;99.90
26623;DHT22;14254;50.968;5.366;2023-04-29T15:43:53;16.70;99.90
26623;DHT22;14254;50.968;5.366;2023-04-29T15:46:19;16.70;99.90
26623;DHT22;14254;50.968;5.366;2023-04-29T15:48:45;16.50;99.90
26623;DHT22;14254;50.968;5.366;2023-04-29T15:51:11;16.20;99.90
26623;DHT22;14254;50.968;5.366;2023-04-29T15:53:39;16.40;99.90
26623;DHT22;14254;50.968;5.366;2023-04-29T15:56:05;16.20;99.90
26623;DHT22;14254;50.968;5.366;2023-04-29T15:58:31;16.30;99.90
26623;DHT22;14254;50.968;5.366;2023-04-29T16:00:56;16.40;99.90
26623;DHT22;14254;50.968;5.366;2023-04-29T16:03:22;16.40;99.90
26623;DHT22;14254;50.968;5.366;2023-04-29T16:05:51;16.20;99.90